Time;durP1;ratioP1;P1;durP2;ratioP2;P2;SDS_P1;SDS_P2;PMS_P1;PMS_P2;Temp;Humidity;BMP_temperature;BMP_pressure;BME280_temperature;BME280_humidity;BME280_pressure;Samples;Min_cycle;Max_cycle;Signal;HPM_P1;HPM_P2
2021/03/04 00:02:51;;;;;;;0.17;0.17;;;;;;;-2.41;100.00;101323.12;1736697;82;21455;-44
2021/03/04 00:05:51;;;;;;;0.10;0.10;;;;;;;-2.43;100.00;101318.45;1744303;82;21143;-44
2021/03/04 00:08:52;;;;;;;0.15;0.13;;;;;;;-2.45;100.00;101321.31;1741643;82;21429;-44
2021/03/04 00:11:53;;;;;;;0.10;0.10;;;;;;;-2.47;100.00;101315.80;1741392;82;21134;-45
2021/03/04 00:14:54;;;;;;;0.20;0.20;;;;;;;-2.50;100.00;101306.25;1711893;83;21175;-45
2021/03/04 00:17:56;;;;;;;0.20;0.20;;;;;;;-2.55;100.00;101303.77;1711895;83;23464;-44
2021/03/04 00:20:57;;;;;;;0.10;0.10;;;;;;;-2.60;100.00;101301.60;1711992;83;21141;-44
2021/03/04 00:23:57;;;;;;;0.20;0.20;;;;;;;-2.64;100.00;101298.45;1711878;83;21144;-44
2021/03/04 00:26:59;;;;;;;0.10;0.10;;;;;;;-2.68;100.00;101285.07;1711843;83;21212;-45
2021/03/04 00:29:59;;;;;;;0.60;0.60;;;;;;;-2.74;100.00;101275.07;1723633;81;21170;-44
2021/03/04 00:33:00;;;;;;;0.40;0.40;;;;;;;-2.77;100.00;101264.69;1749570;82;21663;-44
2021/03/04 00:36:01;;;;;;;0.10;0.10;;;;;;;-2.79;100.00;101250.67;1749809;82;21160;-45
2021/03/04 00:39:01;;;;;;;0.35;0.35;;;;;;;-2.82;100.00;101241.16;1750373;81;21153;-46
2021/03/04 00:42:02;;;;;;;0.00;0.00;;;;;;;-2.83;100.00;101239.98;1738452;82;21476;-44
2021/03/04 00:45:02;;;;;;;0.03;0.03;;;;;;;-2.88;100.00;101230.30;1738571;82;21146;-44
2021/03/04 00:48:03;;;;;;;0.08;0.08;;;;;;;-2.87;100.00;101230.63;1756989;81;21133;-44
2021/03/04 00:51:04;;;;;;;0.35;0.35;;;;;;;-2.86;100.00;101218.94;1732519;82;21154;-45
2021/03/04 00:54:07;;;;;;;0.20;0.20;;;;;;;-2.86;100.00;101211.73;1758580;81;21134;-44
2021/03/04 00:57:07;;;;;;;0.17;0.17;;;;;;;-2.83;100.00;101210.55;1732557;82;21181;-43
2021/03/04 01:00:12;;;;;;;0.13;0.13;;;;;;;-2.81;100.00;101205.36;1728527;82;21146;-45
2021/03/04 01:03:12;;;;;;;0.17;0.17;;;;;;;-2.79;100.00;101205.20;1729535;82;21138;-44
2021/03/04 01:06:13;;;;;;;0.20;0.20;;;;;;;-2.79;100.00;101199.85;1753188;81;21134;-44
2021/03/04 01:09:14;;;;;;;0.10;0.10;;;;;;;-2.78;100.00;101188.13;1751233;81;21102;-44
2021/03/04 01:12:16;;;;;;;0.00;0.00;;;;;;;-2.76;100.00;101188.80;1730433;81;21131;-44
2021/03/04 01:15:22;;;;;;;0.30;0.30;;;;;;;-2.75;100.00;101182.42;1729642;82;21198;-44
2021/03/04 01:18:24;;;;;;;0.20;0.17;;;;;;;-2.73;100.00;101179.08;1714701;83;21606;-45
2021/03/04 01:21:26;;;;;;;0.10;0.10;;;;;;;-2.69;100.00;101171.05;1745521;81;21205;-44
2021/03/04 01:24:28;;;;;;;0.10;0.10;;;;;;;-2.62;100.00;101165.33;1753922;81;21119;-45
2021/03/04 01:27:29;;;;;;;0.00;0.00;;;;;;;-2.61;100.00;101160.29;1753843;81;21165;-45
2021/03/04 01:30:33;;;;;;;0.10;0.10;;;;;;;-2.58;100.00;101169.80;1753738;81;21161;-44
2021/03/04 01:33:35;;;;;;;0.10;0.10;;;;;;;-2.58;100.00;101156.94;1753727;81;21146;-44
2021/03/04 01:36:35;;;;;;;1.15;0.65;;;;;;;-2.58;100.00;101159.10;1753773;81;21149;-45
2021/03/04 01:39:36;;;;;;;0.10;0.10;;;;;;;-2.58;100.00;101149.73;1762198;81;21593;-44
2021/03/04 01:42:36;;;;;;;0.10;0.10;;;;;;;-2.57;100.00;101141.20;1787472;80;21750;-44
2021/03/04 01:45:37;;;;;;;0.10;0.10;;;;;;;-2.60;100.00;101136.55;1787786;80;21138;-44
2021/03/04 01:48:38;;;;;;;0.10;0.10;;;;;;;-2.62;100.00;101130.54;1787915;80;21395;-44
2021/03/04 01:51:39;;;;;;;0.30;0.30;;;;;;;-2.64;100.00;101129.05;1755104;81;21178;-44
2021/03/04 01:54:39;;;;;;;0.10;0.10;;;;;;;-2.64;100.00;101127.20;1763224;80;21186;-44
2021/03/04 01:57:39;;;;;;;0.10;0.10;;;;;;;-2.68;100.00;101119.70;1764151;80;21300;-45
2021/03/04 02:00:40;;;;;;;0.10;0.10;;;;;;;-2.70;100.00;101117.19;1755951;81;21179;-45
2021/03/04 02:03:41;;;;;;;0.10;0.10;;;;;;;-2.72;100.00;101116.55;1787601;80;21133;-44
2021/03/04 02:06:55;;;;;;;0.20;0.20;;;;;;;-2.76;100.00;101116.56;1756768;81;21122;-44
2021/03/04 02:10:03;;;;;;;0.10;0.10;;;;;;;-2.79;100.00;101109.38;1754939;81;21127;-45
2021/03/04 02:13:22;;;;;;;0.37;0.37;;;;;;;-2.83;100.00;101104.90;1725626;81;21158;-44
2021/03/04 02:16:38;;;;;;;0.20;0.20;;;;;;;-2.87;100.00;101100.42;1737978;82;21118;-44
2021/03/04 02:20:08;;;;;;;7.10;0.90;;;;;;;-2.92;100.00;101097.41;1738083;82;21146;-46
2021/03/04 02:23:44;;;;;;;0.10;0.10;;;;;;;-2.92;100.00;101097.92;1738054;82;21541;-45
2021/03/04 02:27:16;;;;;;;1.20;1.07;;;;;;;-2.93;100.00;101089.58;1750248;81;21134;-44
2021/03/04 02:30:21;;;;;;;1.55;0.65;;;;;;;-2.94;100.00;101082.55;1750103;81;21139;-44
2021/03/04 02:33:29;;;;;;;0.28;0.28;;;;;;;-2.96;100.00;101076.56;1729803;82;21842;-44
2021/03/04 02:36:29;;;;;;;0.08;0.08;;;;;;;-2.96;100.00;101075.23;1729622;82;21454;-45
2021/03/04 02:39:30;;;;;;;0.10;0.10;;;;;;;-2.97;100.00;101065.02;1752923;81;21162;-44
2021/03/04 02:42:31;;;;;;;0.10;0.10;;;;;;;-2.94;100.00;101053.13;1787852;80;21174;-44
2021/03/04 02:45:26;;;;;;;0.00;0.00;;;;;;;-2.92;100.00;101048.44;1780472;80;21123;-44
2021/03/04 02:48:26;;;;;;;0.35;0.35;;;;;;;-2.91;100.00;101045.60;1732962;80;21110;-44
2021/03/04 02:51:26;;;;;;;0.10;0.10;;;;;;;-2.89;100.00;101045.44;1782696;80;21700;-44
2021/03/04 02:54:27;;;;;;;0.10;0.10;;;;;;;-2.86;100.00;101042.41;1783034;80;21438;-44
2021/03/04 02:57:27;;;;;;;0.10;0.10;;;;;;;-2.85;100.00;101036.86;1761364;80;21581;-44
2021/03/04 03:00:30;;;;;;;0.75;0.75;;;;;;;-2.82;100.00;101037.86;1781550;80;21182;-44
2021/03/04 03:03:31;;;;;;;0.20;0.20;;;;;;;-2.81;100.00;101037.35;1763868;80;21146;-44
2021/03/04 03:06:31;;;;;;;1.30;0.78;;;;;;;-2.81;100.00;101030.16;1763061;80;21122;-44
2021/03/04 03:09:33;;;;;;;0.10;0.10;;;;;;;-2.82;100.00;101022.30;1761068;80;21110;-44
2021/03/04 03:12:33;;;;;;;0.08;0.08;;;;;;;-2.84;100.00;101014.47;1782711;80;21171;-45
2021/03/04 03:15:27;;;;;;;0.28;0.28;;;;;;;-2.85;100.00;101003.94;1780820;80;21557;-44
2021/03/04 03:18:27;;;;;;;0.10;0.10;;;;;;;-2.84;100.00;101004.28;1783073;80;21558;-44
2021/03/04 03:21:29;;;;;;;0.10;0.10;;;;;;;-2.86;100.00;100995.59;1781786;80;21123;-45
2021/03/04 03:24:29;;;;;;;0.10;0.10;;;;;;;-2.88;100.00;100986.91;1782903;80;21123;-44
2021/03/04 03:27:30;;;;;;;2.10;0.55;;;;;;;-2.91;100.00;100988.10;1783039;80;21252;-44
2021/03/04 03:30:32;;;;;;;0.10;0.10;;;;;;;-2.91;100.00;100984.09;1760922;80;21593;-44
2021/03/04 03:33:33;;;;;;;0.10;0.10;;;;;;;-2.88;100.00;100978.89;1782959;80;21146;-44
2021/03/04 03:36:34;;;;;;;0.10;0.10;;;;;;;-2.89;100.00;100972.71;1781671;80;21126;-44
2021/03/04 03:39:34;;;;;;;2.40;1.35;;;;;;;-2.90;100.00;100968.36;1782900;80;21530;-44
2021/03/04 03:42:34;;;;;;;0.00;0.00;;;;;;;-2.91;100.00;100964.03;1760940;80;21130;-45
2021/03/04 03:45:45;;;;;;;0.10;0.10;;;;;;;-2.91;100.00;100956.52;1760809;80;21107;-44
2021/03/04 03:48:47;;;;;;;0.10;0.10;;;;;;;-2.93;100.00;100951.34;1782926;80;21123;-45
2021/03/04 03:51:47;;;;;;;0.10;0.10;;;;;;;-2.96;100.00;100935.66;1782923;80;21154;-44
2021/03/04 03:54:48;;;;;;;0.98;0.57;;;;;;;-2.96;100.00;100928.15;1761130;80;21525;-44
2021/03/04 03:57:48;;;;;;;0.30;0.30;;;;;;;-2.95;100.00;100929.28;1782932;80;21142;-45
2021/03/04 04:00:51;;;;;;;0.53;0.53;;;;;;;-2.92;100.00;100916.88;1763330;80;21127;-45
2021/03/04 04:03:51;;;;;;;0.25;0.25;;;;;;;-2.82;100.00;100907.28;1786106;80;21123;-44
2021/03/04 04:06:53;;;;;;;0.10;0.10;;;;;;;-2.71;100.00;100903.36;1762463;81;21568;-44
2021/03/04 04:09:53;;;;;;;0.28;0.28;;;;;;;-2.57;100.00;100897.69;1786956;80;21126;-45
2021/03/04 04:12:54;;;;;;;1.15;1.05;;;;;;;-2.45;100.00;100888.20;1730688;82;21198;-44
2021/03/04 04:15:55;;;;;;;0.30;0.30;;;;;;;-2.34;100.00;100881.07;1753815;81;21139;-43
2021/03/04 04:18:57;;;;;;;0.15;0.15;;;;;;;-2.26;100.00;100886.33;1732743;81;21178;-45
2021/03/04 04:21:57;;;;;;;0.10;0.10;;;;;;;-2.22;100.00;100872.08;1729950;81;21126;-44
2021/03/04 04:24:58;;;;;;;0.10;0.10;;;;;;;-2.19;100.00;100865.01;1753727;81;21146;-45
2021/03/04 04:28:00;;;;;;;0.10;0.10;;;;;;;-2.18;100.00;100861.30;1733840;79;21643;-44
2021/03/04 04:31:01;;;;;;;0.20;0.20;;;;;;;-2.17;100.00;100857.11;1741048;81;21153;-44
2021/03/04 04:34:01;;;;;;;0.10;0.10;;;;;;;-2.14;100.00;100860.44;1785826;80;21146;-44
2021/03/04 04:37:02;;;;;;;0.37;0.37;;;;;;;-2.12;100.00;100862.43;1785969;80;21154;-44
2021/03/04 04:40:02;;;;;;;0.10;0.10;;;;;;;-2.10;100.00;100859.89;1792220;80;21157;-44
2021/03/04 04:43:02;;;;;;;0.10;0.10;;;;;;;-2.09;100.00;100856.69;1793786;80;21218;-45
2021/03/04 04:46:03;;;;;;;0.35;0.35;;;;;;;-2.07;100.00;100851.98;1756295;80;21142;-44
2021/03/04 04:48:57;;;;;;;0.10;0.10;;;;;;;-2.07;100.00;100842.61;1780685;80;21122;-45
2021/03/04 04:51:57;;;;;;;0.50;0.50;;;;;;;-2.08;100.00;100838.26;1780646;80;21142;-44
2021/03/04 04:54:58;;;;;;;0.10;0.10;;;;;;;-2.06;100.00;100842.92;1771891;80;21122;-44
2021/03/04 04:57:58;;;;;;;0.23;0.23;;;;;;;-2.06;100.00;100834.38;1772071;80;21204;-44
2021/03/04 05:00:59;;;;;;;0.37;0.37;;;;;;;-2.03;100.00;100826.47;1753939;80;21195;-44
2021/03/04 05:04:01;;;;;;;0.10;0.10;;;;;;;-2.00;100.00;100823.45;1731748;81;21153;-44
2021/03/04 05:07:01;;;;;;;0.15;0.15;;;;;;;-1.96;100.00;100826.87;1751936;81;21138;-44
2021/03/04 05:10:02;;;;;;;0.23;0.23;;;;;;;-1.93;100.00;100832.36;1753363;80;21209;-44
2021/03/04 05:13:02;;;;;;;0.90;0.45;;;;;;;-1.88;100.00;100824.62;1735773;81;21170;-44
2021/03/04 05:16:03;;;;;;;0.13;0.13;;;;;;;-1.84;100.00;100823.20;1754267;80;21174;-45
2021/03/04 05:19:03;;;;;;;1.20;0.90;;;;;;;-1.77;100.00;100820.09;1743916;81;21162;-44
2021/03/04 05:22:05;;;;;;;0.62;0.62;;;;;;;-1.71;100.00;100808.30;1724109;83;21593;-44
2021/03/04 05:25:06;;;;;;;0.75;0.75;;;;;;;-1.62;100.00;100815.20;1747573;81;21102;-45
2021/03/04 05:28:06;;;;;;;0.35;0.35;;;;;;;-1.55;100.00;100802.70;1754273;81;21149;-44
2021/03/04 05:31:07;;;;;;;0.40;0.40;;;;;;;-1.48;100.00;100796.90;1754134;81;21107;-44
2021/03/04 05:34:07;;;;;;;0.42;0.42;;;;;;;-1.39;100.00;100789.02;1742613;81;21513;-44
2021/03/04 05:37:07;;;;;;;0.00;0.00;;;;;;;-1.30;100.00;100778.48;1733639;81;21165;-44
2021/03/04 05:40:09;;;;;;;0.30;0.30;;;;;;;-1.19;100.00;100775.78;1742227;81;21146;-45
2021/03/04 05:43:11;;;;;;;0.93;0.85;;;;;;;-1.06;100.00;100766.17;1728085;81;21138;-44
2021/03/04 05:46:11;;;;;;;0.30;0.28;;;;;;;-0.91;100.00;100765.59;1737767;81;21154;-46
2021/03/04 05:49:12;;;;;;;0.60;0.60;;;;;;;-0.78;100.00;100746.88;1735796;81;21170;-44
2021/03/04 05:52:14;;;;;;;0.10;0.10;;;;;;;-0.62;100.00;100740.86;1741969;81;21172;-44
2021/03/04 05:55:16;;;;;;;0.10;0.10;;;;;;;-0.47;100.00;100737.52;1736873;81;21118;-45
2021/03/04 05:58:17;;;;;;;1.15;0.62;;;;;;;-0.32;100.00;100730.17;1727927;81;21430;-44
2021/03/04 06:01:20;;;;;;;0.10;0.10;;;;;;;-0.15;100.00;100719.06;1740451;80;21188;-44
2021/03/04 06:04:20;;;;;;;0.10;0.10;;;;;;;0.02;100.00;100714.97;1768098;81;21264;-45
2021/03/04 06:07:22;;;;;;;1.55;1.40;;;;;;;0.17;100.00;100712.09;1744547;81;21153;-44
2021/03/04 06:10:22;;;;;;;0.10;0.10;;;;;;;0.33;100.00;100702.31;1754330;81;21193;-45
2021/03/04 06:13:23;;;;;;;0.68;0.68;;;;;;;0.50;100.00;100709.98;1737415;82;21162;-45
2021/03/04 06:16:24;;;;;;;0.20;0.20;;;;;;;0.67;100.00;100699.11;1737844;82;21158;-44
2021/03/04 06:19:26;;;;;;;0.17;0.17;;;;;;;0.85;100.00;100698.47;1738077;82;21165;-45
2021/03/04 06:22:42;;;;;;;0.47;0.47;;;;;;;1.02;100.00;100694.82;1732992;82;21173;-46
2021/03/04 06:25:43;;;;;;;0.42;0.42;;;;;;;1.18;99.34;100693.52;1738127;82;21149;-45
2021/03/04 06:28:43;;;;;;;0.10;0.10;;;;;;;1.36;98.51;100680.72;1767924;81;21390;-44
2021/03/04 06:31:47;;;;;;;0.20;0.20;;;;;;;1.49;97.58;100676.64;1768733;81;21592;-45
2021/03/04 06:34:47;;;;;;;0.70;0.70;;;;;;;1.66;96.81;100667.03;1768636;81;21442;-45
2021/03/04 06:37:49;;;;;;;0.60;0.33;;;;;;;1.83;95.99;100670.55;1768900;81;21170;-45
2021/03/04 06:40:49;;;;;;;0.30;0.30;;;;;;;1.98;94.94;100662.16;1769060;81;21490;-45
2021/03/04 06:43:51;;;;;;;5.83;0.62;;;;;;;2.14;94.00;100662.47;1764704;81;21162;-46
2021/03/04 06:46:51;;;;;;;0.10;0.10;;;;;;;2.31;93.36;100653.85;1753751;81;21214;-45
2021/03/04 06:49:54;;;;;;;0.37;0.37;;;;;;;2.49;92.63;100651.20;1753927;81;21122;-45
2021/03/04 06:52:56;;;;;;;0.78;0.78;;;;;;;2.70;91.54;100646.46;1753886;81;21459;-45
2021/03/04 06:56:09;;;;;;;1.05;1.00;;;;;;;2.91;90.87;100633.87;1757207;81;21533;-45
2021/03/04 06:59:09;;;;;;;1.12;0.72;;;;;;;3.11;89.29;100630.95;1768892;81;21157;-45
2021/03/04 07:02:12;;;;;;;1.72;1.60;;;;;;;3.31;87.61;100628.53;1755757;81;20999;-46
2021/03/04 07:05:13;;;;;;;1.65;0.40;;;;;;;3.50;85.98;100634.74;1768712;81;21154;-45
2021/03/04 07:08:13;;;;;;;0.85;0.85;;;;;;;3.69;84.87;100632.30;1768625;81;21545;-45
2021/03/04 07:11:16;;;;;;;0.78;0.78;;;;;;;3.88;83.86;100627.64;1745250;81;21157;-45
2021/03/04 07:14:16;;;;;;;0.60;0.60;;;;;;;4.07;82.65;100620.30;1768610;81;21150;-44
2021/03/04 07:17:16;;;;;;;0.23;0.23;;;;;;;4.27;81.44;100621.33;1768521;81;22113;-44
2021/03/04 07:20:20;;;;;;;0.82;0.80;;;;;;;4.44;80.22;100608.75;1748794;81;21102;-44
2021/03/04 07:23:23;;;;;;;1.12;1.02;;;;;;;4.62;79.01;100602.39;1753889;81;21403;-45
2021/03/04 07:26:23;;;;;;;0.70;0.70;;;;;;;4.80;78.02;100607.38;1751605;81;21134;-45
2021/03/04 07:29:24;;;;;;;1.00;0.50;;;;;;;4.98;77.12;100603.19;1753707;81;21138;-45
2021/03/04 07:32:24;;;;;;;0.20;0.20;;;;;;;5.16;76.28;100604.36;1732619;81;21447;-45
2021/03/04 07:35:25;;;;;;;1.77;1.67;;;;;;;5.38;75.66;100596.94;1746874;81;21465;-45
2021/03/04 07:38:32;;;;;;;0.50;0.50;;;;;;;5.59;74.77;100600.34;1734534;82;21627;-45
2021/03/04 07:41:48;;;;;;;0.40;0.40;;;;;;;5.80;73.66;100587.15;1738211;82;21189;-44
2021/03/04 07:44:52;;;;;;;0.37;0.37;;;;;;;6.01;73.17;100576.98;1737990;82;21573;-45
2021/03/04 07:47:52;;;;;;;0.47;0.47;;;;;;;6.27;72.29;100588.23;1737948;82;21162;-45
2021/03/04 07:51:05;;;;;;;0.70;0.70;;;;;;;6.48;70.79;100582.59;1750132;81;21150;-45
2021/03/04 07:54:05;;;;;;;1.87;1.67;;;;;;;6.68;69.76;100577.45;1730140;82;21193;-46
2021/03/04 07:57:16;;;;;;;0.55;0.55;;;;;;;6.84;68.83;100576.30;1780039;80;21142;-45
2021/03/04 08:00:18;;;;;;;0.45;0.45;;;;;;;6.98;67.90;100565.89;1782730;80;21142;-45
2021/03/04 08:03:18;;;;;;;0.85;0.85;;;;;;;7.10;66.99;100563.87;1781627;80;21561;-45
2021/03/04 08:06:19;;;;;;;1.82;1.62;;;;;;;7.23;66.06;100552.59;1782607;80;21114;-45
2021/03/04 08:09:34;;;;;;;2.65;0.72;;;;;;;7.34;65.61;100541.28;1767370;80;21285;-45
2021/03/04 08:12:34;;;;;;;1.75;0.78;;;;;;;7.49;64.64;100541.47;1746065;81;21380;-45
2021/03/04 08:15:43;;;;;;;1.22;0.40;;;;;;;7.62;63.95;100532.07;1744051;82;21573;-45
2021/03/04 08:18:45;;;;;;;0.95;0.95;;;;;;;7.74;63.31;100525.92;1746328;81;21187;-46
2021/03/04 08:21:46;;;;;;;1.00;0.78;;;;;;;7.87;62.04;100525.22;1746256;81;21127;-47
2021/03/04 08:24:47;;;;;;;1.30;0.80;;;;;;;7.97;61.28;100519.30;1746159;82;21154;-45
2021/03/04 08:27:48;;;;;;;1.42;1.32;;;;;;;8.06;60.60;100514.73;1751853;81;21162;-45
2021/03/04 08:30:48;;;;;;;0.55;0.55;;;;;;;8.15;59.83;100503.09;1751727;81;21150;-45
2021/03/04 08:33:49;;;;;;;1.67;0.85;;;;;;;8.27;60.05;100508.91;1751805;81;21146;-45
2021/03/04 08:36:53;;;;;;;1.65;0.95;;;;;;;8.38;59.83;100499.70;1751846;81;21474;-46
2021/03/04 08:39:53;;;;;;;0.35;0.35;;;;;;;8.55;59.26;100496.83;1751685;81;21150;-46
2021/03/04 08:42:54;;;;;;;1.52;1.10;;;;;;;8.65;58.79;100488.70;1751666;80;21585;-45
2021/03/04 08:45:59;;;;;;;1.50;1.30;;;;;;;8.79;58.34;100483.59;1746130;82;21470;-45
2021/03/04 08:48:59;;;;;;;1.65;0.95;;;;;;;8.93;56.80;100465.67;1746133;82;21627;-45
2021/03/04 08:52:04;;;;;;;1.30;1.22;;;;;;;9.03;56.97;100470.33;1725162;82;21162;-45
2021/03/04 08:55:05;;;;;;;0.65;0.65;;;;;;;9.13;56.34;100456.72;1746150;82;21123;-46
2021/03/04 08:58:13;;;;;;;1.17;1.12;;;;;;;9.24;55.89;100453.46;1752051;81;21450;-45
2021/03/04 09:01:13;;;;;;;2.50;1.10;;;;;;;9.34;55.65;100448.02;1748205;80;21167;-47
2021/03/04 09:04:13;;;;;;;0.68;0.68;;;;;;;9.42;55.50;100443.92;1746126;81;21182;-45
2021/03/04 09:07:15;;;;;;;2.33;1.62;;;;;;;9.48;54.94;100442.30;1696356;82;21168;-45
2021/03/04 09:10:15;;;;;;;2.12;1.15;;;;;;;9.57;54.91;100433.05;1746147;81;21154;-47
2021/03/04 09:13:16;;;;;;;0.57;0.57;;;;;;;9.67;54.42;100430.86;1746135;82;21127;-46
2021/03/04 09:16:16;;;;;;;1.47;1.32;;;;;;;9.75;53.92;100430.30;1746286;80;21638;-46
2021/03/04 09:19:33;;;;;;;0.98;0.90;;;;;;;9.83;53.43;100420.19;1751648;81;21594;-47
2021/03/04 09:22:33;;;;;;;1.62;1.07;;;;;;;9.94;54.05;100416.07;1729885;82;21171;-46
2021/03/04 09:25:34;;;;;;;2.08;1.57;;;;;;;10.07;54.05;100418.25;1745700;81;21123;-48
2021/03/04 09:28:43;;;;;;;1.37;1.30;;;;;;;10.15;53.52;100417.67;1730028;82;37749;-46
2021/03/04 09:31:59;;;;;;;1.10;1.07;;;;;;;10.22;52.74;100416.83;1745479;82;21161;-46
2021/03/04 09:35:00;;;;;;;3.87;1.37;;;;;;;10.27;52.96;100407.81;1731981;82;21134;-46
2021/03/04 09:38:12;;;;;;;1.15;0.57;;;;;;;10.32;52.59;100399.08;1725470;82;21162;-46
2021/03/04 09:41:17;;;;;;;0.45;0.45;;;;;;;10.36;52.25;100397.14;1725393;82;21127;-46
2021/03/04 09:44:17;;;;;;;;;;;;;;;10.38;51.74;100393.03;1728060;83;21144;-45
2021/03/04 09:47:28;;;;;;;1.27;0.30;;;;;;;10.40;52.00;100398.23;1725507;83;20249;-46
2021/03/04 09:50:34;;;;;;;0.90;0.90;;;;;;;10.43;51.54;100388.91;1726504;81;21222;-46
2021/03/04 09:53:36;;;;;;;0.98;0.80;;;;;;;10.50;52.12;100379.06;1756582;81;21600;-49
2021/03/04 09:56:36;;;;;;;2.98;0.68;;;;;;;10.52;51.33;100368.67;1741662;81;21165;-47
2021/03/04 09:59:37;;;;;;;1.37;1.27;;;;;;;10.50;51.89;100364.03;1756655;81;21182;-46
2021/03/04 10:02:47;;;;;;;0.70;0.70;;;;;;;10.50;52.20;100361.30;1786142;79;21162;-46
2021/03/04 10:05:55;;;;;;;1.25;0.47;;;;;;;10.54;51.46;100358.28;1708989;82;21147;-46
2021/03/04 10:09:00;;;;;;;1.72;1.62;;;;;;;10.59;51.27;100348.69;1718805;82;21147;-48
2021/03/04 10:12:01;;;;;;;1.65;1.55;;;;;;;10.58;50.88;100329.84;1708415;83;21124;-47
2021/03/04 10:15:01;;;;;;;1.30;1.12;;;;;;;10.48;51.05;100327.98;1690212;83;21119;-46
2021/03/04 10:18:03;;;;;;;0.37;0.37;;;;;;;10.43;51.50;100326.64;1708714;83;21151;-47
2021/03/04 10:21:03;;;;;;;0.90;0.90;;;;;;;10.42;51.12;100329.12;1708623;83;21119;-47
2021/03/04 10:24:04;;;;;;;1.12;0.88;;;;;;;10.43;51.38;100314.34;1708777;83;21127;-48
2021/03/04 10:27:04;;;;;;;0.60;0.60;;;;;;;10.47;51.23;100311.33;1708746;83;21426;-47
2021/03/04 10:30:04;;;;;;;1.10;1.10;;;;;;;10.49;51.50;100305.05;1708759;83;21183;-47
2021/03/04 10:33:07;;;;;;;1.35;1.27;;;;;;;10.57;51.62;100298.16;1708665;83;21149;-46
2021/03/04 10:36:10;;;;;;;0.98;0.98;;;;;;;10.68;51.48;100290.98;1708587;83;21047;-47
2021/03/04 10:39:10;;;;;;;3.02;1.40;;;;;;;10.72;50.77;100287.94;1708576;83;21149;-47
2021/03/04 10:42:12;;;;;;;0.20;0.20;;;;;;;10.75;51.25;100285.98;1709695;82;21451;-46
2021/03/04 10:45:15;;;;;;;1.17;1.10;;;;;;;10.82;50.51;100279.41;1708798;83;21611;-46
2021/03/04 10:48:19;;;;;;;0.55;0.55;;;;;;;10.89;50.62;100268.41;1708645;82;21214;-46
2021/03/04 10:51:19;;;;;;;2.52;1.25;;;;;;;10.98;50.29;100272.72;1708270;83;21190;-48
2021/03/04 10:54:19;;;;;;;1.05;1.02;;;;;;;10.98;50.35;100268.63;1708700;83;21282;-47
2021/03/04 10:57:20;;;;;;;0.98;0.98;;;;;;;10.95;50.87;100273.27;1732422;82;21138;-47
2021/03/04 11:00:21;;;;;;;0.50;0.50;;;;;;;10.94;50.26;100260.16;1714180;82;21465;-47
2021/03/04 11:03:21;;;;;;;0.85;0.85;;;;;;;10.92;50.50;100253.34;1708946;83;21203;-46
2021/03/04 11:06:22;;;;;;;0.72;0.72;;;;;;;10.82;50.21;100239.77;1706964;84;21623;-46
2021/03/04 11:09:22;;;;;;;0.80;0.80;;;;;;;10.67;50.83;100237.41;1707114;84;21272;-46
2021/03/04 11:12:25;;;;;;;0.70;0.70;;;;;;;10.62;51.16;100238.83;1706947;84;21143;-47
2021/03/04 11:15:26;;;;;;;0.90;0.60;;;;;;;10.66;50.63;100225.42;1709416;82;21504;-47
2021/03/04 11:18:26;;;;;;;1.32;0.85;;;;;;;10.61;50.63;100225.44;1738249;82;21694;-47
2021/03/04 11:21:27;;;;;;;1.05;1.00;;;;;;;10.53;50.69;100232.33;1738224;82;21149;-46
2021/03/04 11:24:27;;;;;;;1.00;0.60;;;;;;;10.47;50.91;100224.72;1738238;82;21181;-47
2021/03/04 11:27:28;;;;;;;1.25;0.30;;;;;;;10.43;51.16;100222.84;1738248;82;21126;-47
2021/03/04 11:30:29;;;;;;;1.67;1.50;;;;;;;10.37;51.42;100219.34;1738187;82;21150;-48
2021/03/04 11:33:30;;;;;;;1.50;1.40;;;;;;;10.41;51.61;100217.68;1738754;81;21165;-46
2021/03/04 11:36:31;;;;;;;1.05;0.95;;;;;;;10.48;51.51;100211.34;1738264;82;21173;-46
2021/03/04 11:39:32;;;;;;;0.85;0.85;;;;;;;10.56;51.83;100198.99;1738336;82;21477;-47
2021/03/04 11:42:33;;;;;;;2.20;1.42;;;;;;;10.61;51.36;100196.74;1738140;82;21493;-47
2021/03/04 11:45:34;;;;;;;1.55;1.47;;;;;;;10.61;51.21;100183.92;1738331;82;21560;-46
2021/03/04 11:48:36;;;;;;;2.60;1.70;;;;;;;10.55;51.41;100176.85;1738450;82;21328;-47
2021/03/04 11:51:37;;;;;;;1.27;0.68;;;;;;;10.54;51.44;100173.87;1738663;81;21165;-47
2021/03/04 11:54:37;;;;;;;1.17;1.00;;;;;;;10.53;51.60;100170.85;1738412;82;21158;-47
2021/03/04 11:57:38;;;;;;;0.30;0.30;;;;;;;10.51;51.44;100173.89;1738550;82;22033;-47
2021/03/04 12:00:38;;;;;;;0.65;0.65;;;;;;;10.47;51.59;100177.47;1738590;82;21161;-47
2021/03/04 12:03:39;;;;;;;1.22;1.12;;;;;;;10.42;51.56;100170.69;1745880;81;21626;-47
2021/03/04 12:06:42;;;;;;;1.62;1.42;;;;;;;10.42;51.80;100161.12;1758864;81;21157;-47
2021/03/04 12:09:43;;;;;;;0.60;0.60;;;;;;;10.46;51.85;100152.08;1732297;82;21177;-47
2021/03/04 12:12:43;;;;;;;1.55;1.45;;;;;;;10.49;52.19;100152.87;1732215;82;21189;-47
2021/03/04 12:15:44;;;;;;;2.65;1.02;;;;;;;10.55;52.06;100141.34;1732375;82;21688;-48
2021/03/04 12:18:45;;;;;;;2.72;1.22;;;;;;;10.63;51.91;100146.20;1732332;82;21134;-47
2021/03/04 12:21:46;;;;;;;1.27;1.20;;;;;;;10.66;51.33;100142.89;1732109;82;21141;-47
2021/03/04 12:24:47;;;;;;;0.90;0.82;;;;;;;10.64;51.31;100132.79;1748891;80;21206;-47
2021/03/04 12:27:48;;;;;;;1.77;1.67;;;;;;;10.69;51.56;100136.03;1737964;82;21134;-47
2021/03/04 12:30:51;;;;;;;3.42;2.02;;;;;;;10.71;52.07;100120.98;1736805;82;21419;-47
2021/03/04 12:33:53;;;;;;;0.55;0.53;;;;;;;10.77;51.39;100121.73;1738026;82;27975;-48
2021/03/04 12:36:55;;;;;;;2.40;1.00;;;;;;;10.89;51.65;100119.98;1737852;82;21145;-47
2021/03/04 12:39:56;;;;;;;2.62;2.40;;;;;;;10.97;51.57;100110.58;1738105;82;21133;-46
2021/03/04 12:42:57;;;;;;;4.40;1.10;;;;;;;11.05;51.41;100104.21;1738219;81;21561;-47
2021/03/04 12:45:58;;;;;;;5.37;1.55;;;;;;;11.11;51.06;100094.30;1756576;81;21430;-45
2021/03/04 12:49:00;;;;;;;1.03;0.70;;;;;;;11.14;51.50;100092.91;1772741;79;21158;-47
2021/03/04 12:52:01;;;;;;;1.57;1.50;;;;;;;11.16;50.85;100088.77;1772316;80;21170;-46
2021/03/04 12:55:02;;;;;;;0.53;0.50;;;;;;;11.17;51.02;100087.65;1772266;79;21134;-47
2021/03/04 12:58:04;;;;;;;1.27;1.07;;;;;;;11.17;50.83;100084.91;1723898;82;21154;-46
2021/03/04 13:01:05;;;;;;;0.50;0.50;;;;;;;11.21;50.22;100075.59;1733531;82;21115;-46
2021/03/04 13:04:05;;;;;;;2.25;1.72;;;;;;;11.23;50.30;100069.28;1734744;81;21144;-46
2021/03/04 13:07:06;;;;;;;0.47;0.47;;;;;;;11.22;50.57;100073.66;1736288;82;21169;-47
2021/03/04 13:10:06;;;;;;;2.77;1.22;;;;;;;11.20;50.42;100063.00;1736605;82;21121;-46
2021/03/04 13:13:07;;;;;;;1.57;1.47;;;;;;;11.15;50.60;100069.38;1736348;82;21160;-47
2021/03/04 13:16:07;;;;;;;2.20;1.20;;;;;;;11.13;50.26;100059.84;1736633;82;21105;-46
2021/03/04 13:19:08;;;;;;;3.42;2.05;;;;;;;11.12;50.55;100053.53;1736350;82;21149;-45
2021/03/04 13:22:09;;;;;;;2.25;1.10;;;;;;;11.13;50.53;100058.47;1759394;81;21154;-45
2021/03/04 13:25:11;;;;;;;0.98;0.98;;;;;;;11.13;50.22;100070.22;1759567;81;21177;-45
2021/03/04 13:28:11;;;;;;;1.05;0.65;;;;;;;11.08;50.46;100062.64;1729410;82;21201;-46
2021/03/04 13:31:12;;;;;;;3.20;2.02;;;;;;;10.98;50.19;100068.48;1759534;81;21166;-47
2021/03/04 13:34:14;;;;;;;0.60;0.30;;;;;;;10.87;49.84;100071.05;1699809;84;21185;-46
2021/03/04 13:37:16;;;;;;;0.57;0.57;;;;;;;10.72;50.45;100052.91;1699969;84;21219;-46
2021/03/04 13:40:18;;;;;;;1.25;0.65;;;;;;;10.59;50.77;100057.70;1698698;84;21159;-46
2021/03/04 13:43:18;;;;;;;1.42;0.72;;;;;;;10.45;50.91;100054.83;1729877;82;21163;-48
2021/03/04 13:46:19;;;;;;;1.25;1.15;;;;;;;10.31;51.23;100057.43;1703156;84;21179;-46
2021/03/04 13:49:19;;;;;;;1.60;1.47;;;;;;;10.20;51.95;100053.11;1703387;81;21311;-46
2021/03/04 13:52:20;;;;;;;1.00;0.93;;;;;;;10.10;52.23;100051.28;1723365;83;21185;-46
2021/03/04 13:55:22;;;;;;;2.17;0.55;;;;;;;9.99;52.47;100033.91;1703536;84;21169;-47
2021/03/04 13:58:23;;;;;;;7.25;0.65;;;;;;;9.87;52.78;100046.57;1722098;83;21153;-46
2021/03/04 14:01:23;;;;;;;0.30;0.30;;;;;;;9.77;53.22;100042.56;1722192;81;21162;-45
2021/03/04 14:04:26;;;;;;;0.57;0.50;;;;;;;9.55;53.61;100047.88;1722366;81;21744;-46
2021/03/04 14:07:26;;;;;;;3.12;0.33;;;;;;;9.55;53.61;100047.88;1736588;81;21163;-45